sensor_id;sensor_type;location;lat;lon;timestamp;P1;durP1;ratioP1;P2;durP2;ratioP2
62121;SDS011;48108;47.532;19.084;2022-09-14T03:58:16;5.53;;;3.40;;
62121;SDS011;48108;47.532;19.084;2022-09-14T04:01:19;7.10;;;3.60;;
62121;SDS011;48108;47.532;19.084;2022-09-14T04:04:23;6.82;;;3.97;;
62121;SDS011;48108;47.532;19.084;2022-09-14T04:07:26;4.75;;;3.50;;
62121;SDS011;48108;47.532;19.084;2022-09-14T04:10:29;4.75;;;3.90;;
62121;SDS011;48108;47.532;19.084;2022-09-14T04:13:32;8.02;;;4.12;;
62121;SDS011;48108;47.532;19.084;2022-09-14T04:16:34;6.55;;;4.30;;
62121;SDS011;48108;47.532;19.084;2022-09-14T04:19:59;5.90;;;4.03;;
62121;SDS011;48108;47.532;19.084;2022-09-14T04:23:02;4.62;;;3.70;;
62121;SDS011;48108;47.532;19.084;2022-09-14T04:26:09;7.30;;;3.78;;
62121;SDS011;48108;47.532;19.084;2022-09-14T04:29:13;5.63;;;3.37;;
62121;SDS011;48108;47.532;19.084;2022-09-14T04:32:16;7.82;;;4.25;;
62121;SDS011;48108;47.532;19.084;2022-09-14T04:35:19;8.48;;;3.90;;
62121;SDS011;48108;47.532;19.084;2022-09-14T04:38:22;7.35;;;3.92;;
62121;SDS011;48108;47.532;19.084;2022-09-14T04:41:25;6.07;;;3.65;;
62121;SDS011;48108;47.532;19.084;2022-09-14T04:44:30;4.62;;;3.80;;
62121;SDS011;48108;47.532;19.084;2022-09-14T04:51:57;5.10;;;3.75;;
62121;SDS011;48108;47.532;19.084;2022-09-14T04:55:00;5.60;;;4.10;;
62121;SDS011;48108;47.532;19.084;2022-09-14T04:58:03;6.62;;;3.65;;
62121;SDS011;48108;47.532;19.084;2022-09-14T05:01:08;5.12;;;3.75;;
62121;SDS011;48108;47.532;19.084;2022-09-14T05:04:35;5.57;;;4.03;;
62121;SDS011;48108;47.532;19.084;2022-09-14T05:07:40;9.40;;;4.10;;
62121;SDS011;48108;47.532;19.084;2022-09-14T05:10:45;4.68;;;3.80;;
62121;SDS011;48108;47.532;19.084;2022-09-14T05:13:51;7.55;;;4.35;;
62121;SDS011;48108;47.532;19.084;2022-09-14T05:16:54;5.47;;;3.78;;
62121;SDS011;48108;47.532;19.084;2022-09-14T05:19:58;12.27;;;3.83;;
62121;SDS011;48108;47.532;19.084;2022-09-14T05:23:00;8.13;;;4.70;;
62121;SDS011;48108;47.532;19.084;2022-09-14T05:26:03;8.77;;;3.87;;
62121;SDS011;48108;47.532;19.084;2022-09-14T05:29:09;6.10;;;4.15;;
62121;SDS011;48108;47.532;19.084;2022-09-14T05:32:14;6.90;;;4.12;;
62121;SDS011;48108;47.532;19.084;2022-09-14T05:35:17;5.18;;;4.05;;
62121;SDS011;48108;47.532;19.084;2022-09-14T05:42:11;5.60;;;3.65;;
62121;SDS011;48108;47.532;19.084;2022-09-14T05:48:36;5.28;;;3.87;;
62121;SDS011;48108;47.532;19.084;2022-09-14T05:51:39;10.32;;;4.12;;
62121;SDS011;48108;47.532;19.084;2022-09-14T05:54:42;4.95;;;3.47;;
62121;SDS011;48108;47.532;19.084;2022-09-14T05:57:47;7.50;;;3.97;;
62121;SDS011;48108;47.532;19.084;2022-09-14T06:00:52;7.07;;;3.67;;
62121;SDS011;48108;47.532;19.084;2022-09-14T06:03:56;5.40;;;3.40;;
62121;SDS011;48108;47.532;19.084;2022-09-14T06:07:01;7.50;;;3.70;;
62121;SDS011;48108;47.532;19.084;2022-09-14T06:10:20;4.50;;;3.43;;
62121;SDS011;48108;47.532;19.084;2022-09-14T06:13:22;7.03;;;3.45;;
62121;SDS011;48108;47.532;19.084;2022-09-14T06:16:26;6.47;;;3.50;;
62121;SDS011;48108;47.532;19.084;2022-09-14T06:19:29;5.37;;;3.42;;
62121;SDS011;48108;47.532;19.084;2022-09-14T06:22:32;4.57;;;3.20;;
62121;SDS011;48108;47.532;19.084;2022-09-14T06:25:35;6.35;;;3.80;;
62121;SDS011;48108;47.532;19.084;2022-09-14T06:28:38;4.65;;;3.40;;
62121;SDS011;48108;47.532;19.084;2022-09-14T06:31:40;6.47;;;3.62;;
62121;SDS011;48108;47.532;19.084;2022-09-14T06:34:43;6.65;;;3.40;;
62121;SDS011;48108;47.532;19.084;2022-09-14T06:37:46;7.07;;;3.60;;
62121;SDS011;48108;47.532;19.084;2022-09-14T06:41:00;4.78;;;3.80;;
62121;SDS011;48108;47.532;19.084;2022-09-14T06:44:07;6.60;;;4.18;;
62121;SDS011;48108;47.532;19.084;2022-09-14T06:50:57;5.25;;;3.62;;
62121;SDS011;48108;47.532;19.084;2022-09-14T06:54:03;7.12;;;4.05;;
62121;SDS011;48108;47.532;19.084;2022-09-14T06:57:07;6.68;;;3.80;;
62121;SDS011;48108;47.532;19.084;2022-09-14T07:00:12;7.00;;;3.80;;
62121;SDS011;48108;47.532;19.084;2022-09-14T07:03:16;7.15;;;3.85;;
62121;SDS011;48108;47.532;19.084;2022-09-14T07:06:19;5.80;;;4.12;;
62121;SDS011;48108;47.532;19.084;2022-09-14T07:13:16;8.45;;;4.95;;
62121;SDS011;48108;47.532;19.084;2022-09-14T07:24:15;7.30;;;4.97;;
62121;SDS011;48108;47.532;19.084;2022-09-14T07:27:18;7.47;;;5.07;;
62121;SDS011;48108;47.532;19.084;2022-09-14T07:30:21;10.13;;;4.50;;
62121;SDS011;48108;47.532;19.084;2022-09-14T07:33:26;7.50;;;4.82;;
62121;SDS011;48108;47.532;19.084;2022-09-14T07:36:30;8.85;;;4.97;;
62121;SDS011;48108;47.532;19.084;2022-09-14T07:39:36;10.85;;;5.18;;
62121;SDS011;48108;47.532;19.084;2022-09-14T07:42:39;10.48;;;5.87;;
62121;SDS011;48108;47.532;19.084;2022-09-14T07:45:41;9.65;;;5.20;;
62121;SDS011;48108;47.532;19.084;2022-09-14T07:48:47;9.57;;;5.05;;
62121;SDS011;48108;47.532;19.084;2022-09-14T07:51:55;9.65;;;4.85;;
62121;SDS011;48108;47.532;19.084;2022-09-14T07:54:58;7.07;;;4.90;;
62121;SDS011;48108;47.532;19.084;2022-09-14T07:58:00;10.07;;;5.20;;
62121;SDS011;48108;47.532;19.084;2022-09-14T08:01:07;8.82;;;4.87;;
62121;SDS011;48108;47.532;19.084;2022-09-14T08:07:15;8.85;;;5.20;;
62121;SDS011;48108;47.532;19.084;2022-09-14T08:10:19;7.97;;;4.82;;
62121;SDS011;48108;47.532;19.084;2022-09-14T08:13:21;10.23;;;5.00;;
62121;SDS011;48108;47.532;19.084;2022-09-14T08:16:24;8.68;;;5.07;;
62121;SDS011;48108;47.532;19.084;2022-09-14T08:19:28;10.13;;;5.75;;
62121;SDS011;48108;47.532;19.084;2022-09-14T08:22:31;8.52;;;5.70;;
62121;SDS011;48108;47.532;19.084;2022-09-14T08:25:33;10.25;;;5.37;;
62121;SDS011;48108;47.532;19.084;2022-09-14T08:28:36;10.93;;;5.57;;
62121;SDS011;48108;47.532;19.084;2022-09-14T08:31:39;10.43;;;5.15;;
62121;SDS011;48108;47.532;19.084;2022-09-14T08:34:42;9.93;;;4.87;;
62121;SDS011;48108;47.532;19.084;2022-09-14T08:37:44;8.30;;;5.00;;
62121;SDS011;48108;47.532;19.084;2022-09-14T08:40:47;8.40;;;5.07;;
62121;SDS011;48108;47.532;19.084;2022-09-14T08:43:50;10.65;;;5.43;;
62121;SDS011;48108;47.532;19.084;2022-09-14T08:47:01;7.62;;;4.70;;
62121;SDS011;48108;47.532;19.084;2022-09-14T08:50:15;9.98;;;5.05;;
62121;SDS011;48108;47.532;19.084;2022-09-14T08:53:23;11.07;;;4.95;;
62121;SDS011;48108;47.532;19.084;2022-09-14T08:56:30;11.90;;;5.20;;
62121;SDS011;48108;47.532;19.084;2022-09-14T08:59:37;10.07;;;5.43;;
62121;SDS011;48108;47.532;19.084;2022-09-14T09:09:46;6.90;;;5.03;;
62121;SDS011;48108;47.532;19.084;2022-09-14T09:12:52;8.60;;;5.55;;
62121;SDS011;48108;47.532;19.084;2022-09-14T09:15:58;6.45;;;4.35;;
62121;SDS011;48108;47.532;19.084;2022-09-14T09:19:05;5.68;;;3.97;;
62121;SDS011;48108;47.532;19.084;2022-09-14T09:22:13;6.40;;;4.40;;
62121;SDS011;48108;47.532;19.084;2022-09-14T09:25:22;7.10;;;4.82;;
62121;SDS011;48108;47.532;19.084;2022-09-14T09:28:28;7.70;;;4.57;;
62121;SDS011;48108;47.532;19.084;2022-09-14T09:31:38;9.77;;;5.00;;
62121;SDS011;48108;47.532;19.084;2022-09-14T09:34:45;7.03;;;4.80;;
62121;SDS011;48108;47.532;19.084;2022-09-14T09:37:49;5.78;;;5.15;;
62121;SDS011;48108;47.532;19.084;2022-09-14T09:40:57;9.77;;;5.80;;
62121;SDS011;48108;47.532;19.084;2022-09-14T09:44:07;7.05;;;5.18;;
62121;SDS011;48108;47.532;19.084;2022-09-14T09:47:11;9.25;;;5.53;;
62121;SDS011;48108;47.532;19.084;2022-09-14T09:53:19;10.10;;;5.80;;
62121;SDS011;48108;47.532;19.084;2022-09-14T09:56:27;11.77;;;6.15;;
62121;SDS011;48108;47.532;19.084;2022-09-14T09:59:38;11.48;;;6.00;;
62121;SDS011;48108;47.532;19.084;2022-09-14T10:02:43;9.77;;;5.70;;
62121;SDS011;48108;47.532;19.084;2022-09-14T10:05:46;8.10;;;5.97;;
62121;SDS011;48108;47.532;19.084;2022-09-14T10:09:03;9.07;;;5.30;;
62121;SDS011;48108;47.532;19.084;2022-09-14T10:12:15;10.98;;;5.53;;
62121;SDS011;48108;47.532;19.084;2022-09-14T10:18:31;9.13;;;5.10;;
62121;SDS011;48108;47.532;19.084;2022-09-14T10:21:35;8.98;;;5.53;;
62121;SDS011;48108;47.532;19.084;2022-09-14T10:24:37;9.23;;;5.35;;
62121;SDS011;48108;47.532;19.084;2022-09-14T10:30:52;9.05;;;5.05;;
62121;SDS011;48108;47.532;19.084;2022-09-14T10:34:00;7.00;;;4.70;;
62121;SDS011;48108;47.532;19.084;2022-09-14T10:37:17;6.65;;;4.97;;
62121;SDS011;48108;47.532;19.084;2022-09-14T10:40:38;7.03;;;4.78;;
62121;SDS011;48108;47.532;19.084;2022-09-14T10:47:46;6.40;;;4.75;;
62121;SDS011;48108;47.532;19.084;2022-09-14T11:01:07;7.65;;;4.60;;
62121;SDS011;48108;47.532;19.084;2022-09-14T11:07:32;7.00;;;4.28;;
62121;SDS011;48108;47.532;19.084;2022-09-14T11:10:44;7.12;;;4.47;;
62121;SDS011;48108;47.532;19.084;2022-09-14T11:30:30;8.55;;;4.87;;
62121;SDS011;48108;47.532;19.084;2022-09-14T11:33:39;7.37;;;4.53;;
62121;SDS011;48108;47.532;19.084;2022-09-14T11:36:49;6.70;;;4.30;;
62121;SDS011;48108;47.532;19.084;2022-09-14T11:46:35;6.87;;;4.07;;
62121;SDS011;48108;47.532;19.084;2022-09-14T11:53:22;6.22;;;4.18;;
62121;SDS011;48108;47.532;19.084;2022-09-14T11:56:30;6.82;;;3.92;;
62121;SDS011;48108;47.532;19.084;2022-09-14T12:05:44;7.03;;;4.10;;
62121;SDS011;48108;47.532;19.084;2022-09-14T12:08:48;6.22;;;3.92;;
62121;SDS011;48108;47.532;19.084;2022-09-14T12:11:57;5.05;;;3.87;;
62121;SDS011;48108;47.532;19.084;2022-09-14T12:15:01;5.00;;;3.85;;
62121;SDS011;48108;47.532;19.084;2022-09-14T12:21:23;4.68;;;3.87;;
62121;SDS011;48108;47.532;19.084;2022-09-14T12:24:27;5.43;;;3.58;;
62121;SDS011;48108;47.532;19.084;2022-09-14T12:27:30;5.00;;;3.42;;
62121;SDS011;48108;47.532;19.084;2022-09-14T12:33:42;4.93;;;3.45;;
62121;SDS011;48108;47.532;19.084;2022-09-14T12:40:33;5.53;;;3.78;;
62121;SDS011;48108;47.532;19.084;2022-09-14T12:46:41;7.12;;;3.40;;
62121;SDS011;48108;47.532;19.084;2022-09-14T12:49:44;3.67;;;3.20;;
62121;SDS011;48108;47.532;19.084;2022-09-14T12:56:05;3.42;;;2.83;;
62121;SDS011;48108;47.532;19.084;2022-09-14T12:59:23;3.87;;;3.10;;
62121;SDS011;48108;47.532;19.084;2022-09-14T13:06:09;9.65;;;3.00;;
62121;SDS011;48108;47.532;19.084;2022-09-14T13:09:16;3.53;;;2.60;;
62121;SDS011;48108;47.532;19.084;2022-09-14T13:12:32;3.22;;;2.35;;
62121;SDS011;48108;47.532;19.084;2022-09-14T13:15:47;5.22;;;2.30;;
62121;SDS011;48108;47.532;19.084;2022-09-14T13:18:57;3.85;;;2.47;;
62121;SDS011;48108;47.532;19.084;2022-09-14T13:22:02;2.15;;;2.00;;
62121;SDS011;48108;47.532;19.084;2022-09-14T13:28:42;4.15;;;2.55;;
62121;SDS011;48108;47.532;19.084;2022-09-14T13:31:47;3.15;;;2.80;;
62121;SDS011;48108;47.532;19.084;2022-09-14T13:34:50;3.12;;;2.65;;
62121;SDS011;48108;47.532;19.084;2022-09-14T13:37:53;9.55;;;3.37;;
62121;SDS011;48108;47.532;19.084;2022-09-14T13:41:05;5.68;;;2.60;;
62121;SDS011;48108;47.532;19.084;2022-09-14T13:44:11;4.12;;;3.08;;
62121;SDS011;48108;47.532;19.084;2022-09-14T13:47:16;2.75;;;2.37;;
62121;SDS011;48108;47.532;19.084;2022-09-14T13:50:23;3.78;;;2.55;;
62121;SDS011;48108;47.532;19.084;2022-09-14T13:56:43;2.50;;;2.30;;
62121;SDS011;48108;47.532;19.084;2022-09-14T14:00:10;2.55;;;1.98;;
62121;SDS011;48108;47.532;19.084;2022-09-14T14:06:31;3.45;;;2.62;;
62121;SDS011;48108;47.532;19.084;2022-09-14T14:09:40;6.15;;;2.47;;
62121;SDS011;48108;47.532;19.084;2022-09-14T14:12:46;3.25;;;2.60;;
62121;SDS011;48108;47.532;19.084;2022-09-14T14:15:52;4.78;;;2.42;;
62121;SDS011;48108;47.532;19.084;2022-09-14T14:18:55;2.80;;;2.40;;
62121;SDS011;48108;47.532;19.084;2022-09-14T14:25:33;3.92;;;2.55;;
62121;SDS011;48108;47.532;19.084;2022-09-14T14:28:46;3.67;;;2.80;;
62121;SDS011;48108;47.532;19.084;2022-09-14T14:31:49;3.10;;;2.70;;
62121;SDS011;48108;47.532;19.084;2022-09-14T14:34:52;4.53;;;2.70;;
62121;SDS011;48108;47.532;19.084;2022-09-14T14:37:55;3.87;;;2.53;;
62121;SDS011;48108;47.532;19.084;2022-09-14T14:41:00;5.10;;;2.80;;
62121;SDS011;48108;47.532;19.084;2022-09-14T14:44:03;3.75;;;2.90;;
62121;SDS011;48108;47.532;19.084;2022-09-14T14:47:06;5.28;;;2.97;;
62121;SDS011;48108;47.532;19.084;2022-09-14T14:50:13;4.75;;;2.78;;
62121;SDS011;48108;47.532;19.084;2022-09-14T14:53:18;3.25;;;2.80;;
62121;SDS011;48108;47.532;19.084;2022-09-14T14:56:20;4.75;;;2.53;;
62121;SDS011;48108;47.532;19.084;2022-09-14T14:59:27;3.62;;;2.72;;
62121;SDS011;48108;47.532;19.084;2022-09-14T15:02:30;6.28;;;2.60;;
62121;SDS011;48108;47.532;19.084;2022-09-14T15:05:33;3.60;;;2.90;;
62121;SDS011;48108;47.532;19.084;2022-09-14T15:08:40;4.70;;;2.55;;
62121;SDS011;48108;47.532;19.084;2022-09-14T15:11:43;4.03;;;2.87;;
62121;SDS011;48108;47.532;19.084;2022-09-14T15:14:46;3.17;;;2.85;;
62121;SDS011;48108;47.532;19.084;2022-09-14T15:17:49;3.78;;;2.90;;
62121;SDS011;48108;47.532;19.084;2022-09-14T15:20:52;2.90;;;2.60;;
62121;SDS011;48108;47.532;19.084;2022-09-14T15:23:55;6.55;;;2.70;;
62121;SDS011;48108;47.532;19.084;2022-09-14T15:27:00;3.80;;;2.50;;
62121;SDS011;48108;47.532;19.084;2022-09-14T15:30:03;4.47;;;3.00;;
62121;SDS011;48108;47.532;19.084;2022-09-14T15:33:07;3.53;;;2.80;;
62121;SDS011;48108;47.532;19.084;2022-09-14T15:36:10;4.53;;;2.70;;
62121;SDS011;48108;47.532;19.084;2022-09-14T15:39:13;4.30;;;2.70;;
62121;SDS011;48108;47.532;19.084;2022-09-14T15:42:17;2.72;;;2.47;;
62121;SDS011;48108;47.532;19.084;2022-09-14T15:45:20;4.60;;;2.62;;
62121;SDS011;48108;47.532;19.084;2022-09-14T15:48:23;3.20;;;2.72;;
62121;SDS011;48108;47.532;19.084;2022-09-14T15:51:25;3.17;;;2.90;;
62121;SDS011;48108;47.532;19.084;2022-09-14T15:54:32;3.85;;;3.10;;
62121;SDS011;48108;47.532;19.084;2022-09-14T15:57:36;4.72;;;3.33;;
62121;SDS011;48108;47.532;19.084;2022-09-14T16:00:42;5.70;;;3.42;;
62121;SDS011;48108;47.532;19.084;2022-09-14T16:03:46;6.07;;;3.17;;
62121;SDS011;48108;47.532;19.084;2022-09-14T16:06:49;2.70;;;2.50;;
